• Join FlightAware (Why Join?)
  • Login
  • US Flag 
03:54PM EDT


 

Airport Tracker/Info


-or-


 

Live Flight TrackerFlight Track Log ✈ N904FR ✈ 04-May-2013 ✈ KDEN - KBNA

Flight Track Log - Related Links

Times and Time Zones

All times are in EDT time to prevent confusion due to time zone crossing. See the N904FR flight status page for this flight to view local times or setup timezone preferences in your user account.

Time Position Orientation Groundspeed Altitude Reporting Facility
EDT Latitude Longitude Course Direction KTS MPH feet Rate Location/Type
12:39PM 39.8667 -104.5500 90° East 212 244 7,600  Level Denver TRACON
12:40PM 39.8333 -104.4667 117° Southeast 274 315 8,400 1,500 Climbing Denver TRACON
12:41PM 39.8197 -104.4250 113° Southeast 274 315 9,800 2,340 Climbing Denver Center
12:42PM 39.8050 -104.3050 99° East 319 367 12,100 2,220 Climbing Denver Center
12:43PM 39.7911 -104.1819 98° East 344 396 14,500 2,460 Climbing Denver Center
12:44PM 39.7756 -104.0406 98° East 369 425 17,200 2,460 Climbing Denver Center
12:45PM 39.7333 -103.7732 90° East  Level FlightAware Approximate
12:45PM 39.7606 -103.9061 98° East 379 436 19,600  Level Denver Center
12:46PM 39.7425 -103.7556 99° East 387 445 22,000 1,980 Climbing Denver Center
12:47PM 39.7319 -103.6294 96° East 388 447 23,700 1,740 Climbing Denver Center
12:48PM 39.7186 -103.4492 95° East 423 487 25,600 1,740 Climbing Denver Center
12:49PM 39.7053 -103.2908 96° East 435 501 27,300 1,380 Climbing Denver Center
12:50PM 39.6919 -103.1278 96° East 448 516 28,500 1,080 Climbing Denver Center
12:51PM 39.6794 -102.9586 95° East 466 536 29,600 1,200 Climbing Denver Center
12:52PM 39.6633 -102.7842 97° East 479 551 31,000 1,500 Climbing Denver Center
12:53PM 39.6481 -102.6119 97° East 483 556 32,700 1,560 Climbing Denver Center
12:54PM 39.6314 -102.4206 96° East 481 554 34,300 1,920 Climbing Denver Center
12:55PM 39.6169 -102.2622 97° East 460 529 36,700 1,260 Climbing Denver Center
12:56PM 39.6006 -102.0844 97° East 446 513 37,000 120 Climbing Denver Center
12:57PM 39.5869 -101.9322 97° East 446 513 37,000  Level Denver Center
12:58PM 39.5733 -101.7533 96° East 447 514 37,000  Level Denver Center
12:59PM 39.5611 -101.5978 96° East 452 520 37,000  Level Denver Center
01:00PM 39.5461 -101.4178 96° East 453 521 37,100  Climbing Denver Center
01:01PM 39.5436 -101.2650 91° East 446 513 37,000 -60 Descending Denver Center
01:02PM 39.5414 -101.0864 91° East 445 512 37,000  Level Denver Center
01:03PM 39.5392 -100.9336 91° East 445 512 37,000  Level Denver Center
01:04PM 39.5367 -100.7569 91° East 442 509 37,000  Level Denver Center
01:05PM 39.5344 -100.6047 91° East 443 510 37,000  Level Denver Center
01:07PM 39.5314 -100.4258 91° East 445 512 37,100  Climbing Denver Center
01:08PM 39.5283 -100.2756 91° East 441 507 37,000 -60 Descending Denver Center
01:09PM 39.5244 -100.1006 92° East 437 503 37,000  Level Denver Center
01:10PM 39.5217 -99.9492 91° East 438 504 37,000  Level Denver Center
01:11PM 39.5172 -99.7925 92° East 437 503 37,000  Level Denver Center
01:12PM 39.5139 -99.6375 92° East 434 499 37,000  Level Denver Center
01:13PM 39.5081 -99.4231 92° East 427 491 37,000  Level Denver Center
01:14PM 39.5028 -99.2397 92° East 428 493 37,000  Level Denver Center
01:15PM 39.4986 -99.0861 92° East 427 491 37,000  Level Denver Center
01:16PM 39.4942 -98.9311 92° East 431 496 37,000  Level Denver Center
01:17PM 39.4875 -98.7764 93° East 432 497 37,100  Climbing Denver Center
01:18PM 39.4831 -98.6239 92° East 427 491 37,100 -60 Level Denver Center
01:19PM 39.4789 -98.4764 92° East 414 476 37,000 -60 Descending Denver Center
01:20PM 39.4717 -98.2981 93° East 412 474 37,000 -60 Level Denver Center
01:22PM 39.4633 -98.1006 93° East 411 473 36,900  Descending Kansas City Center
01:23PM 39.4564 -97.9325 93° East 417 480 37,000 60 Climbing Kansas City Center
01:24PM 39.4528 -97.7850 92° East 424 488 37,100  Climbing Kansas City Center
01:25PM 39.4464 -97.6339 93° East 423 487 37,000 -60 Descending Kansas City Center
01:26PM 39.4369 -97.4725 94° East 422 486 37,000  Level Kansas City Center
01:27PM 39.4311 -97.3267 93° East 424 488 37,100  Climbing Kansas City Center
01:28PM 39.4239 -97.1597 93° East 418 481 37,000 -60 Descending Kansas City Center
01:29PM 39.4158 -97.0164 94° East 417 480 37,000  Level Kansas City Center
01:30PM 39.4094 -96.8500 93° East 417 480 37,000  Level Kansas City Center
01:31PM 39.4019 -96.7075 94° East 415 478 37,000  Level Kansas City Center
01:32PM 39.3947 -96.5642 94° East 416 479 37,000  Level Kansas City Center
01:33PM 39.3858 -96.3997 94° East 412 474 37,000  Level Kansas City Center
01:34PM 39.3775 -96.2503 94° East 415 478 37,000  Level Kansas City Center
01:35PM 39.3681 -96.0922 94° East 414 476 37,000  Level Kansas City Center
01:36PM 39.3600 -95.9475 94° East 419 482 37,000  Level Kansas City Center
01:37PM 39.3506 -95.7822 94° East 416 479 37,100 480 Climbing Kansas City Center
01:38PM 39.3428 -95.6425 94° East 408 470 38,100 600 Climbing Kansas City Center
01:39PM 39.3344 -95.5019 94° East 410 472 38,400 300 Climbing Kansas City Center
01:40PM 39.3239 -95.3306 94° East 424 488 38,800 240 Climbing Kansas City Center
01:41PM 39.3131 -95.1650 95° East 432 497 39,000 60 Climbing Kansas City Center
01:42PM 39.3047 -95.0311 95° East 426 490 39,000  Level Kansas City Center
01:43PM 39.2928 -94.8617 95° East 423 487 39,000  Level Kansas City Center
01:44PM 39.2728 -94.7217 100° East 418 481 39,000  Level Kansas City Center
01:45PM 39.2211 -94.5672 113° Southeast 421 484 39,000  Level Kansas City Center
01:46PM 39.1714 -94.4389 117° Southeast 419 482 39,000  Level Kansas City Center
01:47PM 39.1211 -94.3081 116° Southeast 424 488 39,000  Level Kansas City Center
01:49PM 39.0619 -94.1558 117° Southeast 425 489 39,000  Level Kansas City Center
01:50PM 39.0108 -94.0250 117° Southeast 426 490 39,000  Level Kansas City Center
01:51PM 38.9514 -93.8722 117° Southeast 427 491 39,000  Level Kansas City Center
01:52PM 38.9022 -93.7467 117° Southeast 424 488 39,000  Level Kansas City Center
01:53PM 38.8489 -93.6108 117° Southeast 425 489 39,000  Level Kansas City Center
01:54PM 38.7942 -93.4769 118° Southeast 424 488 39,000  Level Kansas City Center
01:55PM 38.7306 -93.3147 117° Southeast 423 487 39,000  Level Kansas City Center
01:56PM 38.6778 -93.1781 116° Southeast 426 490 39,000  Level Kansas City Center
01:57PM 38.6228 -93.0433 118° Southeast 426 490 39,000  Level Kansas City Center
01:58PM 38.5689 -92.9094 117° Southeast 423 487 39,000  Level Kansas City Center
01:59PM 38.5142 -92.7742 117° Southeast 424 488 39,000  Level Kansas City Center
02:00PM 38.4594 -92.6400 117° Southeast 424 488 39,000  Level Kansas City Center
02:01PM 38.4053 -92.5025 117° Southeast 427 491 39,000  Level Kansas City Center
02:02PM 38.3497 -92.3683 118° Southeast 425 489 39,000  Level Kansas City Center
02:03PM 38.2947 -92.2333 117° Southeast 423 487 39,000  Level Kansas City Center
02:04PM 38.2386 -92.0978 118° Southeast 425 489 39,000  Level Kansas City Center
02:05PM 38.1822 -91.9619 118° Southeast 427 491 39,000  Level Kansas City Center
02:06PM 38.1256 -91.8258 118° Southeast 429 494 39,000  Level Kansas City Center
02:07PM 38.0578 -91.6642 118° Southeast 430 495 39,000  Level Kansas City Center
02:08PM 38.0042 -91.5311 117° Southeast 425 489 39,000  Level Kansas City Center
02:09PM 37.9442 -91.3967 119° Southeast 430 495 39,000  Level Kansas City Center
02:10PM 37.8881 -91.2631 118° Southeast 430 495 39,000  Level Kansas City Center
02:11PM 37.8308 -91.1314 119° Southeast 426 490 39,000  Level Kansas City Center
02:12PM 37.7694 -90.9850 118° Southeast 425 489 39,000  Level Kansas City Center
02:13PM 37.7128 -90.8556 119° Southeast 424 488 39,000  Level Kansas City Center
02:14PM 37.6558 -90.7250 119° Southeast 426 490 39,000 -360 Level Kansas City Center
02:15PM 37.6003 -90.5953 118° Southeast 424 488 38,300 -840 Descending Kansas City Center
02:16PM 37.5428 -90.4658 119° Southeast 425 489 37,400 -1,020 Descending Kansas City Center
02:17PM 37.4919 -90.3344 116° Southeast 420 483 36,300 -1,020 Descending Kansas City Center
02:18PM 37.4697 -90.1956 101° East 409 471 35,400 -1,080 Descending Kansas City Center
02:19PM 37.4550 -90.0361 97° East 398 458 34,200 -1,080 Descending Kansas City Center
02:20PM 37.4422 -89.8992 97° East 395 455 33,200 -600 Descending Kansas City Center
02:21PM 37.4300 -89.7736 97° East 376 433 33,000 -120 Descending Kansas City Center
02:22PM 37.4175 -89.6517 97° East 361 415 33,000  Level Kansas City Center
02:24PM 37.4061 -89.5286 97° East 356 410 33,000  Level Kansas City Center
02:25PM 37.3925 -89.4039 98° East 356 410 33,000  Level Kansas City Center
02:26PM 37.3764 -89.2544 98° East 357 411 33,000  Level Kansas City Center
02:26PM 37.3700 -89.1850 97° East 359 413 33,000  Level Memphis Center
02:27PM 37.3583 -89.0628 97° East 359 413 33,000 -480 Level Memphis Center
02:28PM 37.3467 -88.9456 97° East 347 399 32,100 -960 Descending Memphis Center
02:29PM 37.3350 -88.8308 97° East 342 394 31,100 -1,020 Descending Memphis Center
02:30PM 37.3231 -88.7058 97° East 331 381 30,100 -1,020 Descending Memphis Center
02:31PM 37.3089 -88.5889 99° East 331 381 29,100 -1,020 Descending Memphis Center
02:32PM 37.2947 -88.4744 99° East 331 381 28,100 -1,080 Descending Memphis Center
02:33PM 37.2803 -88.3600 99° East 336 387 27,000 -1,140 Descending Memphis Center
02:34PM 37.2756 -88.3133 97° East 338 389 26,600 -1,020 Descending Memphis Center
02:34PM 37.2742 -88.2431 91° East 331 381 26,000 -900 Descending Memphis Center
02:35PM 37.2631 -88.2017 109° East 339 390 25,700 -1,020 Descending Memphis Center
02:35PM 37.2575 -88.1261 95° East 331 381 25,000 -1,140 Descending Memphis Center
02:36PM 37.2483 -88.0794 104° East 336 387 24,600 -900 Descending Memphis Center
02:36PM 37.2453 -88.0197 94° East 331 381 24,100 -600 Descending Memphis Center
02:37PM 37.2339 -87.9628 104° East 327 376 24,000 -120 Descending Memphis Center
02:37PM 37.2306 -87.9056 94° East 331 381 24,000 -120 Level Memphis Center
02:38PM 37.2128 -87.8567 115° Southeast 319 367 23,900 -600 Descending Memphis Center
02:38PM 37.1889 -87.8078 122° Southeast 324 373 23,400 -1,140 Descending Memphis Center
02:39PM 37.1631 -87.7644 127° Southeast 316 364 22,800 -1,020 Descending Memphis Center
02:39PM 37.1411 -87.7158 120° Southeast 319 367 22,400 -900 Descending Memphis Center
02:40PM 37.1153 -87.6725 127° Southeast 315 362 21,900 -1,020 Descending Memphis Center
02:40PM 37.0956 -87.6261 118° Southeast 313 360 21,400 -960 Descending Memphis Center
02:41PM 37.0433 -87.5267 123° Southeast 313 360 20,400 -1,080 Descending Memphis Center
02:42PM 37.0217 -87.4911 127° Southeast 307 353 19,900 -1,140 Descending Memphis Center
02:42PM 36.9975 -87.4400 121° Southeast 300 345 19,300 -1,140 Descending Memphis Center
02:43PM 36.9736 -87.4019 128° Southeast 302 348 18,800 -1,020 Descending Memphis Center
02:43PM 36.9494 -87.3508 121° Southeast 300 345 18,300 -1,020 Descending Memphis Center
02:44PM 36.9278 -87.3153 127° Southeast 306 352 17,800 -1,020 Descending Memphis Center
02:44PM 36.9058 -87.2642 118° Southeast 300 345 17,300 -1,020 Descending Memphis Center
02:45PM 36.8556 -87.1728 124° Southeast 305 351 16,300 -1,200 Descending Memphis Center
02:46PM 36.8033 -87.0919 129° Southeast 300 345 15,000 -1,500 Descending Memphis Center
02:47PM 36.7314 -87.0483 154° Southeast 289 333 13,300 -1,680 Descending Memphis Center
02:48PM 36.6594 -87.0047 154° Southeast 289 333 11,700 -1,620 Descending Memphis Center
02:49PM 36.5894 -86.9586 152° Southeast 284 327 10,100 -1,260 Descending Memphis Center
02:50PM 36.5442 -86.9061 137° Southeast 266 306 9,200 -1,260 Descending Memphis Center
02:51PM 36.4964 -86.8436 134° Southeast 250 288 7,600 -1,560 Descending Memphis Center
02:52PM 36.4489 -86.7864 136° Southeast 245 282 6,100 -1,740 Descending Memphis Center
02:53PM 36.3953 -86.7347 142° Southeast 233 268 4,200 -1,200 Descending Memphis Center
02:54PM 36.3336 -86.6911 150° Southeast 239 275 3,700 -840 Descending Memphis Center
02:55PM 36.2781 -86.6472 148° Southeast 244 281 2,600 -600 Descending Memphis Center
02:56PM 36.2258 -86.6444 178° South 191 220 2,500 -600 Descending Memphis Center
02:57PM 36.1806 -86.6619 197° South 177 204 1,500 -900 Descending Memphis Center
02:58PM 36.1456 -86.6739 195° South 154 177 800 -420 Descending Memphis Center
02:59PM 36.1064 -86.6883 197° South 154 177 700 -120 Descending Memphis Center
03:01PM 36.1167 -86.6667 90° East  Level FlightAware Approximate